createdAt,value
2023-02-24T00:01:51.226Z,8.80
2023-02-24T00:04:20.391Z,8.80
2023-02-24T00:06:48.142Z,8.80
2023-02-24T00:09:19.495Z,8.80
2023-02-24T00:11:55.420Z,8.70
2023-02-24T00:14:23.232Z,8.70
2023-02-24T00:16:50.414Z,8.70
2023-02-24T00:19:20.609Z,8.70
2023-02-24T00:21:47.954Z,8.70
2023-02-24T00:24:15.537Z,8.60
2023-02-24T00:26:42.718Z,8.60
2023-02-24T00:29:12.417Z,8.60
2023-02-24T00:31:42.053Z,8.60
2023-02-24T00:34:10.039Z,8.50
2023-02-24T00:36:36.677Z,8.50
2023-02-24T00:39:09.865Z,8.50
2023-02-24T00:41:41.765Z,8.50
2023-02-24T00:44:13.574Z,8.50
2023-02-24T00:46:45.827Z,8.40
2023-02-24T00:49:18.488Z,8.40
2023-02-24T00:51:49.298Z,8.40
2023-02-24T00:54:17.045Z,8.40
2023-02-24T00:56:45.636Z,8.30
2023-02-24T00:59:14.298Z,8.30
2023-02-24T01:01:42.090Z,8.30
2023-02-24T01:04:11.643Z,8.30
2023-02-24T01:06:45.124Z,8.30
2023-02-24T01:09:20.346Z,8.30
2023-02-24T01:12:07.814Z,8.30
2023-02-24T01:14:35.681Z,8.30
2023-02-24T01:17:03.708Z,8.30
2023-02-24T01:19:32.128Z,8.30
2023-02-24T01:22:07.013Z,8.30
2023-02-24T01:24:39.511Z,8.20
2023-02-24T01:27:07.926Z,8.20
2023-02-24T01:29:39.684Z,8.20
2023-02-24T01:32:16.915Z,8.20
2023-02-24T01:34:43.931Z,8.20
2023-02-24T01:37:10.964Z,8.20
2023-02-24T01:39:37.680Z,8.20
2023-02-24T01:42:06.698Z,8.20
2023-02-24T01:44:33.343Z,8.20
2023-02-24T01:47:01.359Z,8.20
2023-02-24T01:49:38.980Z,8.20
2023-02-24T01:52:13.219Z,8.20
2023-02-24T01:54:46.028Z,8.20
2023-02-24T01:57:19.675Z,8.10
2023-02-24T01:59:49.257Z,8.10
2023-02-24T02:02:17.078Z,8.10
2023-02-24T02:04:51.566Z,8.00
2023-02-24T02:07:21.867Z,8.00
2023-02-24T02:09:50.854Z,8.00
2023-02-24T02:12:17.611Z,7.90
2023-02-24T02:14:52.258Z,7.90
2023-02-24T02:17:42.479Z,7.90
2023-02-24T02:20:27.949Z,7.80
2023-02-24T02:23:17.468Z,7.80
2023-02-24T02:25:44.113Z,7.80
2023-02-24T02:28:13.778Z,7.70
2023-02-24T02:31:17.510Z,7.70
2023-02-24T02:34:05.853Z,7.70
2023-02-24T02:37:07.481Z,7.60
2023-02-24T02:39:47.387Z,7.60
2023-02-24T02:42:30.365Z,7.50
2023-02-24T02:45:04.918Z,7.50
2023-02-24T02:47:41.258Z,7.50
2023-02-24T02:50:18.803Z,7.40
2023-02-24T02:53:16.068Z,7.40
2023-02-24T02:55:53.370Z,7.40
2023-02-24T02:58:27.259Z,7.30
2023-02-24T03:01:05.248Z,7.30
2023-02-24T03:03:39.080Z,7.30
2023-02-24T03:06:17.232Z,7.20
2023-02-24T03:08:52.386Z,7.20
2023-02-24T03:11:20.775Z,7.20
2023-02-24T03:13:50.899Z,7.20
2023-02-24T03:16:19.737Z,7.10
2023-02-24T03:19:11.262Z,7.10
2023-02-24T03:21:47.845Z,7.00
2023-02-24T03:24:15.652Z,7.00
2023-02-24T03:26:51.927Z,7.00
2023-02-24T03:29:27.625Z,6.90
2023-02-24T03:32:43.739Z,6.90
2023-02-24T03:35:21.636Z,6.90
2023-02-24T03:37:49.939Z,6.80
2023-02-24T03:40:17.665Z,6.80
2023-02-24T03:42:58.080Z,6.80
2023-02-24T03:45:28.023Z,6.80
2023-02-24T03:47:55.964Z,6.80
2023-02-24T03:50:23.367Z,6.70
2023-02-24T03:53:10.646Z,6.70
2023-02-24T03:55:58.832Z,6.70
2023-02-24T03:58:42.311Z,6.70
2023-02-24T04:01:18.369Z,6.70
2023-02-24T04:03:52.833Z,6.70
2023-02-24T04:06:43.868Z,6.60
2023-02-24T04:09:35.077Z,6.60
2023-02-24T04:12:09.921Z,6.60
2023-02-24T04:15:00.597Z,6.60
2023-02-24T04:17:43.824Z,6.60
2023-02-24T04:20:16.471Z,6.60
2023-02-24T04:22:54.498Z,6.60
2023-02-24T04:25:24.869Z,6.60
2023-02-24T04:27:56.211Z,6.60
2023-02-24T04:30:26.511Z,6.60
2023-02-24T04:32:53.908Z,6.60
2023-02-24T04:35:22.795Z,6.60
2023-02-24T04:37:50.859Z,6.50
2023-02-24T04:40:21.961Z,6.50
2023-02-24T04:42:50.482Z,6.50
2023-02-24T04:45:28.308Z,6.50
2023-02-24T04:48:00.737Z,6.50
2023-02-24T04:50:30.085Z,6.50
2023-02-24T04:53:09.461Z,6.50
2023-02-24T04:55:40.274Z,6.50
2023-02-24T04:58:12.223Z,6.40
2023-02-24T05:00:41.580Z,6.40
2023-02-24T05:03:11.245Z,6.40
2023-02-24T05:05:38.024Z,6.40
2023-02-24T05:08:09.470Z,6.40
2023-02-24T05:10:46.380Z,6.40
2023-02-24T05:13:27.138Z,6.40
2023-02-24T05:15:56.452Z,6.40
2023-02-24T05:18:29.904Z,6.40
2023-02-24T05:21:15.698Z,6.40
2023-02-24T05:23:44.709Z,6.40
2023-02-24T05:26:16.258Z,6.40
2023-02-24T05:28:46.785Z,6.40
2023-02-24T05:31:28.914Z,6.40
2023-02-24T05:33:58.951Z,6.40
2023-02-24T05:36:29.360Z,6.40
2023-02-24T05:39:04.525Z,6.40
2023-02-24T05:41:35.832Z,6.40
2023-02-24T05:44:08.404Z,6.40
2023-02-24T05:46:38.693Z,6.50
2023-02-24T05:49:14.198Z,6.50
2023-02-24T05:51:43.427Z,6.50
2023-02-24T05:54:13.046Z,6.50
2023-02-24T05:56:43.728Z,6.50
2023-02-24T05:59:11.872Z,6.50
2023-02-24T06:01:45.753Z,6.50
2023-02-24T06:04:20.838Z,6.50
2023-02-24T06:06:54.978Z,6.50
2023-02-24T06:09:23.130Z,6.50
2023-02-24T06:11:50.302Z,6.50
2023-02-24T06:14:17.212Z,6.50
2023-02-24T06:16:43.992Z,6.50
2023-02-24T06:19:12.188Z,6.50
2023-02-24T06:21:43.798Z,6.50
2023-02-24T06:24:17.980Z,6.70
2023-02-24T06:26:45.476Z,6.50
2023-02-24T06:29:17.357Z,6.70
2023-02-24T06:31:44.967Z,6.60
2023-02-24T06:34:13.814Z,6.60
2023-02-24T06:36:40.987Z,6.60
2023-02-24T06:39:08.000Z,6.60
2023-02-24T06:41:37.792Z,6.60
2023-02-24T06:44:04.603Z,6.60
2023-02-24T06:46:31.463Z,6.60
2023-02-24T06:48:58.162Z,6.60
2023-02-24T06:51:26.682Z,6.60
2023-02-24T06:53:53.710Z,6.60
2023-02-24T06:56:20.423Z,6.60
2023-02-24T06:58:52.234Z,6.60
2023-02-24T07:01:25.495Z,6.60
2023-02-24T07:04:17.625Z,6.70
2023-02-24T07:06:49.288Z,6.70
2023-02-24T07:09:17.174Z,6.70
2023-02-24T07:11:51.954Z,6.70
2023-02-24T07:14:21.075Z,6.70
2023-02-24T07:16:53.828Z,6.70
2023-02-24T07:19:29.579Z,6.70
2023-02-24T07:22:01.900Z,6.70
2023-02-24T07:24:33.739Z,6.70
2023-02-24T07:27:23.269Z,6.70
2023-02-24T07:29:53.274Z,6.80
2023-02-24T07:32:22.320Z,6.80
2023-02-24T07:34:49.152Z,6.80
2023-02-24T07:37:16.712Z,6.80
2023-02-24T07:39:43.463Z,6.80
2023-02-24T07:42:13.664Z,6.80
2023-02-24T07:44:46.178Z,6.80
2023-02-24T07:47:12.855Z,6.90
2023-02-24T07:49:40.781Z,6.90
2023-02-24T07:52:08.030Z,6.90
2023-02-24T07:54:35.112Z,6.90
2023-02-24T07:57:01.783Z,6.90
2023-02-24T07:59:32.195Z,6.90
2023-02-24T08:02:00.482Z,6.90
2023-02-24T08:04:30.064Z,6.90
2023-02-24T08:06:58.798Z,7.00
2023-02-24T08:09:47.027Z,7.00
2023-02-24T08:12:22.428Z,7.00
2023-02-24T08:14:51.763Z,7.00
2023-02-24T08:17:21.296Z,7.10
2023-02-24T08:19:50.019Z,7.10
2023-02-24T08:22:20.272Z,7.00
2023-02-24T08:25:00.516Z,7.10
2023-02-24T08:27:31.932Z,7.10
2023-02-24T08:30:02.682Z,7.10
2023-02-24T08:32:46.512Z,7.10
2023-02-24T08:35:18.437Z,7.10
2023-02-24T08:37:53.939Z,7.20
2023-02-24T08:40:33.378Z,7.20
2023-02-24T08:43:16.504Z,7.20
2023-02-24T08:45:56.630Z,7.20
2023-02-24T08:48:26.443Z,7.20
2023-02-24T08:50:57.184Z,7.20
2023-02-24T08:53:29.583Z,7.20
2023-02-24T08:55:56.421Z,7.30
2023-02-24T08:58:27.001Z,7.30
2023-02-24T09:00:59.151Z,7.30
2023-02-24T09:03:29.069Z,7.30
2023-02-24T09:06:04.423Z,7.30
2023-02-24T09:08:33.570Z,7.30
2023-02-24T09:11:22.808Z,7.40
2023-02-24T09:13:54.784Z,7.40
2023-02-24T09:16:23.582Z,7.40
2023-02-24T09:19:09.753Z,7.40
2023-02-24T09:22:10.252Z,7.40
2023-02-24T09:24:39.965Z,7.40
2023-02-24T09:27:07.191Z,7.40
2023-02-24T09:29:35.145Z,7.40
2023-02-24T09:32:04.582Z,7.50
2023-02-24T09:34:36.307Z,7.50
2023-02-24T09:37:04.250Z,7.50
2023-02-24T09:39:52.008Z,7.50
2023-02-24T09:42:28.579Z,7.50
2023-02-24T09:45:00.655Z,7.50
2023-02-24T09:47:55.266Z,7.50
2023-02-24T09:50:55.100Z,7.40
2023-02-24T09:53:13.979Z,7.40
2023-02-24T09:55:59.981Z,7.40
2023-02-24T09:58:43.319Z,7.40
2023-02-24T10:01:23.036Z,7.40
2023-02-24T10:04:20.724Z,7.40
2023-02-24T10:06:57.588Z,7.40
2023-02-24T10:09:34.314Z,7.40
2023-02-24T10:12:18.902Z,7.40
2023-02-24T10:15:18.791Z,7.40
2023-02-24T10:17:52.200Z,7.40
2023-02-24T10:20:39.918Z,7.40
2023-02-24T10:23:32.871Z,7.50
2023-02-24T10:26:07.800Z,7.40
2023-02-24T10:28:54.067Z,7.50
2023-02-24T10:31:48.123Z,7.50
2023-02-24T10:34:26.277Z,7.50
2023-02-24T10:36:53.350Z,7.50
2023-02-24T10:39:30.246Z,7.50
2023-02-24T10:42:17.876Z,7.60
2023-02-24T10:45:03.016Z,7.60
2023-02-24T10:47:31.418Z,7.60
2023-02-24T10:50:04.356Z,7.60
2023-02-24T10:52:58.355Z,7.60
2023-02-24T10:55:45.742Z,7.60
2023-02-24T10:58:44.855Z,7.50
2023-02-24T11:01:21.213Z,7.50
2023-02-24T11:04:12.975Z,7.50
2023-02-24T11:06:39.656Z,7.50
2023-02-24T11:09:29.221Z,7.50
2023-02-24T11:12:16.760Z,7.50
2023-02-24T11:15:20.350Z,7.50
2023-02-24T11:17:50.755Z,7.50
2023-02-24T11:20:47.995Z,7.40
2023-02-24T11:23:44.499Z,7.40
2023-02-24T11:26:22.034Z,7.50
2023-02-24T11:29:24.903Z,7.50
2023-02-24T11:32:23.910Z,7.50
2023-02-24T11:34:58.076Z,7.50
2023-02-24T11:37:37.185Z,7.40
2023-02-24T11:40:25.006Z,7.40
2023-02-24T11:43:07.306Z,7.40
2023-02-24T11:45:41.172Z,7.40
2023-02-24T11:48:26.425Z,7.40
2023-02-24T11:51:01.836Z,7.40
2023-02-24T11:53:45.339Z,7.40
2023-02-24T11:56:27.116Z,7.40
2023-02-24T11:59:14.770Z,7.40
2023-02-24T12:02:03.686Z,7.40
2023-02-24T12:04:44.246Z,7.40
2023-02-24T12:07:22.400Z,7.40
2023-02-24T12:10:14.084Z,7.40
2023-02-24T12:12:58.265Z,7.40
2023-02-24T12:15:40.114Z,7.40
2023-02-24T12:18:33.959Z,7.40
2023-02-24T12:21:26.589Z,7.40
2023-02-24T12:23:53.610Z,7.40
2023-02-24T12:26:23.933Z,7.40
2023-02-24T12:29:10.566Z,7.40
2023-02-24T12:32:10.769Z,7.40
2023-02-24T12:34:50.572Z,7.40
2023-02-24T12:37:35.837Z,7.40
2023-02-24T12:40:39.030Z,7.50
2023-02-24T12:43:15.071Z,7.40
2023-02-24T12:46:13.605Z,7.40
2023-02-24T12:49:24.130Z,7.50
2023-02-24T12:52:28.307Z,7.50
2023-02-24T12:55:21.585Z,7.50
2023-02-24T12:57:48.254Z,7.50
2023-02-24T13:01:04.392Z,7.50
2023-02-24T13:03:56.540Z,7.60
2023-02-24T13:06:33.697Z,7.60
2023-02-24T13:09:31.499Z,7.60
2023-02-24T13:12:16.524Z,7.60
2023-02-24T13:14:44.216Z,7.60
2023-02-24T13:17:10.782Z,7.70
2023-02-24T13:19:43.238Z,7.70
2023-02-24T13:22:12.683Z,7.70
2023-02-24T13:24:42.763Z,7.70
2023-02-24T13:27:26.999Z,7.80
2023-02-24T13:30:07.824Z,7.80
2023-02-24T13:32:44.741Z,7.80
2023-02-24T13:35:18.020Z,7.90
2023-02-24T13:37:47.172Z,8.00
2023-02-24T13:40:22.158Z,7.90
2023-02-24T13:43:00.734Z,8.00
2023-02-24T13:45:37.297Z,8.00
2023-02-24T13:48:36.306Z,8.00
2023-02-24T13:51:22.746Z,8.00
2023-02-24T13:54:29.335Z,8.10
2023-02-24T13:57:20.471Z,8.10
2023-02-24T14:00:12.199Z,8.20
2023-02-24T14:02:43.995Z,8.20
2023-02-24T14:05:23.427Z,8.20
2023-02-24T14:07:53.205Z,8.20
2023-02-24T14:10:27.249Z,8.30
2023-02-24T14:13:21.884Z,8.30
2023-02-24T14:15:48.893Z,8.40
2023-02-24T14:18:29.671Z,8.40
2023-02-24T14:20:58.049Z,8.40
2023-02-24T14:23:28.809Z,8.40
2023-02-24T14:26:07.958Z,8.50
2023-02-24T14:28:37.181Z,8.50
2023-02-24T14:31:23.145Z,8.60
2023-02-24T14:33:57.870Z,8.60
2023-02-24T14:36:31.909Z,8.60
2023-02-24T14:39:04.531Z,8.70
2023-02-24T14:41:31.203Z,8.70
2023-02-24T14:44:08.356Z,8.80
2023-02-24T14:46:45.166Z,8.80
2023-02-24T14:49:23.998Z,8.90
2023-02-24T14:52:00.288Z,8.90
2023-02-24T14:54:44.579Z,8.90
2023-02-24T14:57:35.290Z,8.90
2023-02-24T15:00:12.297Z,8.90
2023-02-24T15:02:48.599Z,9.00
2023-02-24T15:05:15.720Z,9.00
2023-02-24T15:07:45.311Z,9.00
2023-02-24T15:10:26.543Z,9.00
2023-02-24T15:13:01.041Z,9.00
2023-02-24T15:15:34.999Z,9.00
2023-02-24T15:18:09.139Z,9.10
2023-02-24T15:20:40.704Z,9.10
2023-02-24T15:23:39.303Z,9.20
2023-02-24T15:26:08.572Z,9.20
2023-02-24T15:28:37.301Z,9.20
2023-02-24T15:31:10.906Z,9.30
2023-02-24T15:33:40.926Z,9.30
2023-02-24T15:36:17.231Z,9.40
2023-02-24T15:38:45.130Z,9.40
2023-02-24T15:41:13.414Z,9.40
2023-02-24T15:43:43.111Z,9.50
2023-02-24T15:46:30.177Z,9.50
2023-02-24T15:49:01.555Z,9.50
2023-02-24T15:51:35.900Z,9.50
2023-02-24T15:54:04.788Z,9.50
2023-02-24T15:56:33.692Z,9.50
2023-02-24T15:59:02.418Z,9.50
2023-02-24T16:01:30.746Z,9.50
2023-02-24T16:03:57.551Z,9.50
2023-02-24T16:06:25.635Z,9.40
2023-02-24T16:08:53.806Z,9.40
2023-02-24T16:11:25.241Z,9.40
2023-02-24T16:13:55.493Z,9.50
2023-02-24T16:16:23.308Z,9.40
2023-02-24T16:18:50.534Z,9.40
2023-02-24T16:21:17.910Z,9.40
2023-02-24T16:23:44.949Z,9.40
2023-02-24T16:26:16.791Z,9.40
2023-02-24T16:28:48.143Z,9.40
2023-02-24T16:31:14.944Z,9.40
2023-02-24T16:33:54.162Z,9.50
2023-02-24T16:36:24.154Z,9.50
2023-02-24T16:38:51.629Z,9.40
2023-02-24T16:41:18.623Z,9.40
2023-02-24T16:43:45.286Z,9.50
2023-02-24T16:46:17.787Z,9.50
2023-02-24T16:48:49.919Z,9.50
2023-02-24T16:51:16.791Z,9.50
2023-02-24T16:53:43.769Z,9.40
2023-02-24T16:56:11.865Z,9.40
2023-02-24T16:58:38.528Z,9.40
2023-02-24T17:01:05.804Z,9.40
2023-02-24T17:03:43.998Z,9.40
2023-02-24T17:06:10.698Z,9.40
2023-02-24T17:08:37.593Z,9.30
2023-02-24T17:11:04.652Z,9.30
2023-02-24T17:13:31.363Z,9.30
2023-02-24T17:15:58.059Z,9.30
2023-02-24T17:18:25.238Z,9.30
2023-02-24T17:20:52.715Z,9.20
2023-02-24T17:23:19.746Z,9.20
2023-02-24T17:25:51.684Z,9.20
2023-02-24T17:28:18.557Z,9.20
2023-02-24T17:30:45.596Z,9.10
2023-02-24T17:33:14.212Z,9.20
2023-02-24T17:35:42.071Z,9.10
2023-02-24T17:38:13.462Z,9.10
2023-02-24T17:40:44.239Z,9.00
2023-02-24T17:43:11.242Z,9.00
2023-02-24T17:45:42.920Z,9.00
2023-02-24T17:48:10.350Z,8.90
2023-02-24T17:50:37.593Z,8.90
2023-02-24T17:53:04.349Z,8.90
2023-02-24T17:55:30.960Z,8.90
2023-02-24T17:57:59.909Z,8.90
2023-02-24T18:00:26.968Z,8.80
2023-02-24T18:02:54.039Z,8.80
2023-02-24T18:05:21.097Z,8.80
2023-02-24T18:07:47.760Z,8.80
2023-02-24T18:10:14.493Z,8.70
2023-02-24T18:12:41.204Z,8.80
2023-02-24T18:15:09.488Z,8.80
2023-02-24T18:17:38.423Z,8.80
2023-02-24T18:20:07.167Z,8.80
2023-02-24T18:22:34.882Z,8.70
2023-02-24T18:25:01.519Z,8.70
2023-02-24T18:27:28.521Z,8.70
2023-02-24T18:29:55.317Z,8.70
2023-02-24T18:32:22.204Z,8.70
2023-02-24T18:34:49.129Z,8.70
2023-02-24T18:37:15.834Z,8.70
2023-02-24T18:39:42.559Z,8.70
2023-02-24T18:42:09.662Z,8.70
2023-02-24T18:44:36.535Z,8.70
2023-02-24T18:47:09.104Z,8.70
2023-02-24T18:49:36.964Z,8.70
2023-02-24T18:52:05.231Z,8.60
2023-02-24T18:54:33.660Z,8.60
2023-02-24T18:57:00.446Z,8.60
2023-02-24T18:59:27.176Z,8.60
2023-02-24T19:01:56.500Z,8.60
2023-02-24T19:04:23.818Z,8.60
2023-02-24T19:06:50.657Z,8.60
2023-02-24T19:09:21.484Z,8.60
2023-02-24T19:11:49.570Z,8.60
2023-02-24T19:14:16.540Z,8.50
2023-02-24T19:16:43.479Z,8.60
2023-02-24T19:19:13.611Z,8.50
2023-02-24T19:21:40.337Z,8.50
2023-02-24T19:24:08.167Z,8.50
2023-02-24T19:26:35.556Z,8.50
2023-02-24T19:29:03.813Z,8.50
2023-02-24T19:31:32.776Z,8.50
2023-02-24T19:34:02.996Z,8.50
2023-02-24T19:36:31.448Z,8.50
2023-02-24T19:38:58.447Z,8.40
2023-02-24T19:41:25.443Z,8.40
2023-02-24T19:43:52.289Z,8.40
2023-02-24T19:46:19.406Z,8.40
2023-02-24T19:48:46.194Z,8.30
2023-02-24T19:51:16.606Z,8.40
2023-02-24T19:53:43.332Z,8.30
2023-02-24T19:56:10.124Z,8.30
2023-02-24T19:58:37.560Z,8.30
2023-02-24T20:01:14.296Z,8.20
2023-02-24T20:03:42.698Z,8.20
2023-02-24T20:06:31.232Z,8.20
2023-02-24T20:08:58.741Z,8.20
2023-02-24T20:11:25.794Z,8.10
2023-02-24T20:13:53.097Z,8.10
2023-02-24T20:16:22.416Z,8.10
2023-02-24T20:18:49.450Z,8.10
2023-02-24T20:21:16.355Z,8.00
2023-02-24T20:23:43.672Z,8.00
2023-02-24T20:26:13.978Z,8.00
2023-02-24T20:28:40.738Z,8.00
2023-02-24T20:31:13.975Z,8.00
2023-02-24T20:33:42.083Z,8.00
2023-02-24T20:36:15.820Z,8.00
2023-02-24T20:38:42.878Z,8.00
2023-02-24T20:41:09.911Z,8.00
2023-02-24T20:43:36.733Z,8.00
2023-02-24T20:46:14.317Z,8.00
2023-02-24T20:48:41.305Z,7.90
2023-02-24T20:51:09.449Z,8.00
2023-02-24T20:53:51.029Z,7.90
2023-02-24T20:56:23.884Z,7.90
2023-02-24T20:58:59.755Z,7.90
2023-02-24T21:01:27.323Z,7.90
2023-02-24T21:03:54.121Z,7.90
2023-02-24T21:06:20.837Z,7.90
2023-02-24T21:08:47.708Z,7.90
2023-02-24T21:11:15.137Z,7.80
2023-02-24T21:13:43.657Z,7.80
2023-02-24T21:16:11.760Z,7.80
2023-02-24T21:18:40.512Z,7.80
2023-02-24T21:21:09.095Z,7.80
2023-02-24T21:23:37.954Z,7.80
2023-02-24T21:26:05.978Z,7.80
2023-02-24T21:28:33.332Z,7.80
2023-02-24T21:31:00.537Z,7.80
2023-02-24T21:33:27.609Z,7.70
2023-02-24T21:36:06.474Z,7.80
2023-02-24T21:38:34.136Z,7.80
2023-02-24T21:41:06.949Z,7.70
2023-02-24T21:43:33.853Z,7.70
2023-02-24T21:46:02.565Z,7.70
2023-02-24T21:48:29.329Z,7.70
2023-02-24T21:51:08.597Z,7.70
2023-02-24T21:53:39.022Z,7.70
2023-02-24T21:56:18.677Z,7.60
2023-02-24T21:58:48.587Z,7.60
2023-02-24T22:01:26.991Z,7.60
2023-02-24T22:03:55.538Z,7.60
2023-02-24T22:06:23.505Z,7.60
2023-02-24T22:08:50.313Z,7.60
2023-02-24T22:11:19.568Z,7.50
2023-02-24T22:13:47.322Z,7.50
2023-02-24T22:16:18.050Z,7.50
2023-02-24T22:18:45.259Z,7.50
2023-02-24T22:21:16.987Z,7.50
2023-02-24T22:23:45.156Z,7.50
2023-02-24T22:26:13.528Z,7.40
2023-02-24T22:28:41.741Z,7.40
2023-02-24T22:31:09.902Z,7.40
2023-02-24T22:33:40.822Z,7.40
2023-02-24T22:36:24.574Z,7.50
2023-02-24T22:38:52.345Z,7.40
2023-02-24T22:41:21.442Z,7.50
2023-02-24T22:43:48.384Z,7.50
2023-02-24T22:46:17.480Z,7.50
2023-02-24T22:48:44.622Z,7.50
2023-02-24T22:51:12.632Z,7.50
2023-02-24T22:53:42.197Z,7.50
2023-02-24T22:56:12.518Z,7.60
2023-02-24T22:58:39.384Z,7.50
2023-02-24T23:01:27.180Z,7.50
2023-02-24T23:03:54.336Z,7.60
2023-02-24T23:06:23.702Z,7.60
2023-02-24T23:08:51.911Z,7.60
2023-02-24T23:11:24.844Z,7.60
2023-02-24T23:13:51.946Z,7.60
2023-02-24T23:16:22.560Z,7.60
2023-02-24T23:18:53.818Z,7.60
2023-02-24T23:21:26.325Z,7.60
2023-02-24T23:23:56.688Z,7.60
2023-02-24T23:26:48.494Z,7.60
2023-02-24T23:29:17.686Z,7.50
2023-02-24T23:31:45.361Z,7.60
2023-02-24T23:34:13.031Z,7.60
2023-02-24T23:36:43.330Z,7.50
2023-02-24T23:39:13.082Z,7.60
2023-02-24T23:41:41.226Z,7.60
2023-02-24T23:44:08.750Z,7.50
2023-02-24T23:46:36.430Z,7.50
2023-02-24T23:49:03.658Z,7.60
2023-02-24T23:51:45.720Z,7.50
2023-02-24T23:54:15.161Z,7.50
2023-02-24T23:56:41.903Z,7.50
2023-02-24T23:59:09.074Z,7.60
